Terminal Aerodrome Forecast
Issued by NWS Tampa Bay Area, FL

Home | Current Version | Previous Version | Text Only | Print | Product List | Glossary On
Versions: 1 2 3 4 5 6 7 8 9 10 11 12 13 14 15 16 17 18 19 20 21 22 23 24 25
000
FTUS42 KTBW 200900 AAA
TAFTPA
TAF AMD
KTPA 200900Z 2009/2106 VRB04KT P6SM FEW250
     FM201600 27009KT P6SM SCT035 SCT150
     FM210300 VRB03KT P6SM FEW250=

USA.gov is the U.S. government's official web portal to all federal, state and local government web resources and services.